Darstellungsparameter: Aktuell verwendete Einstellungen:
Skalierung der Graphiken ... ?
xyx+y,   Skalierungsfaktor:      Skalierung: Modus: x, Faktor: 1
Darstellungszeitraum ... ?
Vom - - bis: - -   Zeitraum: 14.01.2021 - 14.01.2021
Min/Max/Avg-Anzeige ... ?
Zeige MMA aktuell
Zeige MMA Monat
Zeige MMA alles
Zeige --A aktuell
Zeige --A Monat
Zeige --A alles
Keine MMA-Anzeige
MMA:
Minimum Maximum Average (ber die Originaldaten)
MMA-Basis: 23.03.2019 - 25.04.2019
Quicknavigation für Darstellung... ?
Tage:      1T, 2T, 3T, 5T -1T -2T -3T -5T +1T +2T +3T +5T
Wochen: 1W, 2W, 3W -1W -2W -3W +1W +2W +3W
Monate: 1M, 3M, 6M -1M -3M -6M +1M +3M +6M
Jahre:    1J, 3J, 5J, 10J -1J -3J -5J -10J +1J +3J +5J +10J
Nutze für die Darstellung ... ?
Originaldaten oder Mittelwerte auf ...
Stundenbasis Tagesbasis Wochenbasis
Monatsbasis Jahresbasis      Datenbasis: Original-Daten
Darstellen als:
Statistik (Auto) Statistik J:M      Darstellung:
Zur Graphik,    zurück zur Übersicht aller Sensoren.
 
Tabellarische Datenbersicht: ?
 
Sensor: Nr:Datum:Temp:Abs-Feuchte:Windchill:Wind:
Aussen-T/F 1 14-01-2021 00:00:00 3.8 C 5.27 g/m*3 1.7 C 8.1 km/h
2 14-01-2021 00:05:00 3.9 C 5.31 g/m*3 1.41 C 9.7 km/h
3 14-01-2021 00:10:00 4 C 5.34 g/m*3 1.53 C 9.7 km/h
4 14-01-2021 00:15:00 4.1 C 5.38 g/m*3 1 C 12.9 km/h
5 14-01-2021 00:20:00 4.1 C 5.38 g/m*3 2.05 C 8.1 km/h
6 14-01-2021 00:25:00 4.2 C 5.41 g/m*3 2.17 C 8.1 km/h
7 14-01-2021 00:30:00 4.2 C 5.41 g/m*3 1.77 C 9.7 km/h
8 14-01-2021 00:35:00 4.2 C 5.48 g/m*3 2.17 C 8.1 km/h
9 14-01-2021 00:40:00 4.2 C 5.54 g/m*3 4.2 C 3.2 km/h
10 14-01-2021 00:45:00 4.2 C 5.61 g/m*3 2.67 C 6.4 km/h
11 14-01-2021 00:50:00 4.2 C 5.67 g/m*3 0.59 C 16.1 km/h
12 14-01-2021 00:55:00 4.2 C 5.67 g/m*3 0.59 C 16.1 km/h
13 14-01-2021 01:00:00 4.2 C 5.73 g/m*3 2.67 C 6.4 km/h
14 14-01-2021 01:05:00 4.2 C 5.73 g/m*3 2.67 C 6.4 km/h
15 14-01-2021 01:10:00 4.2 C 5.8 g/m*3 4.2 C 4.8 km/h
16 14-01-2021 01:15:00 4.1 C 5.76 g/m*3 2.05 C 8.1 km/h
17 14-01-2021 01:20:00 4.1 C 5.82 g/m*3 1 C 12.9 km/h
18 14-01-2021 01:25:00 4.1 C 5.82 g/m*3 1 C 12.9 km/h
19 14-01-2021 01:30:00 4.1 C 5.89 g/m*3 1.65 C 9.7 km/h
20 14-01-2021 01:35:00 4 C 5.79 g/m*3 1.18 C 11.3 km/h
21 14-01-2021 01:40:00 4 C 5.85 g/m*3 1.53 C 9.7 km/h
22 14-01-2021 01:45:00 3.9 C 5.81 g/m*3 1.82 C 8.1 km/h
23 14-01-2021 01:50:00 3.9 C 5.81 g/m*3 1.41 C 9.7 km/h
24 14-01-2021 01:55:00 3.8 C 5.77 g/m*3 2.21 C 6.4 km/h
25 14-01-2021 02:00:00 3.8 C 5.83 g/m*3 2.21 C 6.4 km/h
Sensor: Nr:Datum:Temp:Abs-Feuchte:Windchill:Wind:
Aussen-T/F 26 14-01-2021 02:05:00 3.8 C 5.83 g/m*3 2.21 C 6.4 km/h
27 14-01-2021 02:10:00 3.8 C 5.83 g/m*3 1.7 C 8.1 km/h
28 14-01-2021 02:15:00 3.8 C 5.83 g/m*3 2.21 C 6.4 km/h
29 14-01-2021 02:20:00 3.8 C 5.83 g/m*3 1.7 C 8.1 km/h
30 14-01-2021 02:25:00 3.8 C 5.83 g/m*3 1.29 C 9.7 km/h
31 14-01-2021 02:30:00 3.8 C 5.77 g/m*3 1.29 C 9.7 km/h
32 14-01-2021 02:35:00 3.8 C 5.77 g/m*3 0.94 C 11.3 km/h
33 14-01-2021 02:40:00 3.7 C 5.73 g/m*3 2.09 C 6.4 km/h
34 14-01-2021 02:45:00 3.7 C 5.67 g/m*3 1.58 C 8.1 km/h
35 14-01-2021 02:50:00 3.7 C 5.67 g/m*3 2.09 C 6.4 km/h
36 14-01-2021 02:55:00 3.7 C 5.67 g/m*3 1.58 C 8.1 km/h
37 14-01-2021 03:00:00 3.7 C 5.67 g/m*3 2.09 C 6.4 km/h
38 14-01-2021 03:05:00 3.6 C 5.63 g/m*3 1.46 C 8.1 km/h
39 14-01-2021 03:10:00 3.6 C 5.57 g/m*3 3.6 C 4.8 km/h
40 14-01-2021 03:15:00 3.6 C 5.57 g/m*3 1.46 C 8.1 km/h
41 14-01-2021 03:20:00 3.6 C 5.57 g/m*3 1.06 C 9.7 km/h
42 14-01-2021 03:25:00 3.6 C 5.51 g/m*3 1.46 C 8.1 km/h
43 14-01-2021 03:30:00 3.6 C 5.51 g/m*3 1.98 C 6.4 km/h
44 14-01-2021 03:35:00 3.6 C 5.51 g/m*3 3.6 C 4.8 km/h
45 14-01-2021 03:40:00 3.6 C 5.51 g/m*3 3.6 C 0 km/h
46 14-01-2021 03:45:00 3.5 C 5.47 g/m*3 1.34 C 8.1 km/h
47 14-01-2021 03:50:00 3.4 C 5.37 g/m*3 3.4 C 4.8 km/h
48 14-01-2021 03:55:00 3.4 C 5.37 g/m*3 3.4 C 4.8 km/h
49 14-01-2021 04:00:00 3.4 C 5.37 g/m*3 3.4 C 4.8 km/h
50 14-01-2021 04:05:00 3.4 C 5.37 g/m*3 3.4 C 3.2 km/h
Sensor: Nr:Datum:Temp:Abs-Feuchte:Windchill:Wind:
Aussen-T/F 51 14-01-2021 04:10:00 3.4 C 5.37 g/m*3 3.4 C 1.6 km/h
52 14-01-2021 04:15:00 3.4 C 5.37 g/m*3 1.75 C 6.4 km/h
53 14-01-2021 04:20:00 3.4 C 5.37 g/m*3 3.4 C 3.2 km/h
54 14-01-2021 04:25:00 3.4 C 5.37 g/m*3 1.23 C 8.1 km/h
55 14-01-2021 04:30:00 3.3 C 5.28 g/m*3 1.11 C 8.1 km/h
56 14-01-2021 04:35:00 3.2 C 5.12 g/m*3 0.99 C 8.1 km/h
57 14-01-2021 04:40:00 3.2 C 5 g/m*3 0.22 C 11.3 km/h
58 14-01-2021 04:45:00 3.1 C 4.91 g/m*3 0.46 C 9.7 km/h
59 14-01-2021 04:50:00 3.1 C 4.91 g/m*3 1.4 C 6.4 km/h
60 14-01-2021 04:55:00 3 C 4.88 g/m*3 1.28 C 6.4 km/h
61 14-01-2021 05:00:00 2.9 C 4.84 g/m*3 1.17 C 6.4 km/h
62 14-01-2021 05:05:00 2.9 C 4.84 g/m*3 2.9 C 3.2 km/h
63 14-01-2021 05:10:00 2.8 C 4.75 g/m*3 2.8 C 4.8 km/h
64 14-01-2021 05:15:00 2.7 C 4.78 g/m*3 2.7 C 1.6 km/h
65 14-01-2021 05:20:00 2.7 C 4.78 g/m*3 2.7 C 1.6 km/h
66 14-01-2021 05:25:00 2.6 C 4.69 g/m*3 0.82 C 6.4 km/h
67 14-01-2021 05:30:00 2.5 C 4.6 g/m*3 0.17 C 8.1 km/h
68 14-01-2021 05:35:00 2.6 C 4.69 g/m*3 2.6 C 4.8 km/h
69 14-01-2021 05:40:00 2.5 C 4.66 g/m*3 2.5 C 1.6 km/h
70 14-01-2021 05:45:00 2.4 C 4.62 g/m*3 2.4 C 3.2 km/h
71 14-01-2021 05:50:00 2.4 C 4.62 g/m*3 2.4 C 3.2 km/h
72 14-01-2021 05:55:00 2.4 C 4.68 g/m*3 2.4 C 0 km/h
73 14-01-2021 06:00:00 2.4 C 4.68 g/m*3 2.4 C 0 km/h
74 14-01-2021 06:05:00 2.4 C 4.74 g/m*3 2.4 C 0 km/h
75 14-01-2021 06:10:00 2.3 C 4.71 g/m*3 2.3 C 0 km/h
Sensor: Nr:Datum:Temp:Abs-Feuchte:Windchill:Wind:
Aussen-T/F 76 14-01-2021 06:15:00 2.3 C 4.76 g/m*3 2.3 C 1.6 km/h
77 14-01-2021 06:20:00 2.2 C 4.73 g/m*3 2.2 C 1.6 km/h
78 14-01-2021 06:25:00 2.1 C 4.76 g/m*3 2.1 C 0 km/h
79 14-01-2021 06:30:00 2 C 4.78 g/m*3 2 C 0 km/h
80 14-01-2021 06:35:00 1.9 C 4.75 g/m*3 1.9 C 0 km/h
81 14-01-2021 06:40:00 1.8 C 4.71 g/m*3 1.8 C 1.6 km/h
82 14-01-2021 06:45:00 1.8 C 4.66 g/m*3 1.8 C 1.6 km/h
83 14-01-2021 06:50:00 1.7 C 4.68 g/m*3 1.7 C 1.6 km/h
84 14-01-2021 06:55:00 1.7 C 4.63 g/m*3 1.7 C 0 km/h
85 14-01-2021 07:00:00 1.7 C 4.63 g/m*3 1.7 C 4.8 km/h
86 14-01-2021 07:05:00 1.7 C 4.63 g/m*3 1.7 C 0 km/h
87 14-01-2021 07:10:00 1.7 C 4.68 g/m*3 1.7 C 1.6 km/h
88 14-01-2021 07:15:00 1.6 C 4.65 g/m*3 1.6 C 0 km/h
89 14-01-2021 07:20:00 1.6 C 4.65 g/m*3 1.6 C 0 km/h
90 14-01-2021 07:25:00 1.5 C 4.62 g/m*3 1.5 C 0 km/h
91 14-01-2021 07:30:00 1.4 C 4.59 g/m*3 1.4 C 0 km/h
92 14-01-2021 07:35:00 1.4 C 4.64 g/m*3 1.4 C 0 km/h
93 14-01-2021 07:40:00 1.4 C 4.59 g/m*3 1.4 C 0 km/h
94 14-01-2021 07:45:00 1.4 C 4.64 g/m*3 1.4 C 0 km/h
95 14-01-2021 07:50:00 1.4 C 4.64 g/m*3 1.4 C 1.6 km/h
96 14-01-2021 07:55:00 1.4 C 4.59 g/m*3 1.4 C 0 km/h
97 14-01-2021 08:00:00 1.4 C 4.59 g/m*3 1.4 C 4.8 km/h
98 14-01-2021 08:05:00 1.4 C 4.59 g/m*3 1.4 C 1.6 km/h
99 14-01-2021 08:10:00 1.4 C 4.59 g/m*3 1.4 C 0 km/h
100 14-01-2021 08:15:00 1.4 C 4.59 g/m*3 1.4 C 0 km/h
Sensor: Nr:Datum:Temp:Abs-Feuchte:Windchill:Wind:
Aussen-T/F 101 14-01-2021 08:20:00 1.4 C 4.59 g/m*3 1.4 C 0 km/h
102 14-01-2021 08:25:00 1.4 C 4.64 g/m*3 1.4 C 0 km/h
103 14-01-2021 08:30:00 1.4 C 4.64 g/m*3 1.4 C 0 km/h
104 14-01-2021 08:35:00 1.4 C 4.64 g/m*3 1.4 C 0 km/h
105 14-01-2021 08:40:00 1.3 C 4.61 g/m*3 1.3 C 1.6 km/h
106 14-01-2021 08:45:00 1.3 C 4.61 g/m*3 1.3 C 0 km/h
107 14-01-2021 08:50:00 1.3 C 4.61 g/m*3 1.3 C 3.2 km/h
108 14-01-2021 08:55:00 1.3 C 4.61 g/m*3 1.3 C 0 km/h
109 14-01-2021 09:00:00 1.3 C 4.66 g/m*3 1.3 C 0 km/h
110 14-01-2021 09:05:00 1.3 C 4.66 g/m*3 1.3 C 0 km/h
111 14-01-2021 09:10:00 1.3 C 4.66 g/m*3 1.3 C 0 km/h
112 14-01-2021 09:15:00 1.3 C 4.66 g/m*3 1.3 C 0 km/h
113 14-01-2021 09:20:00 1.3 C 4.66 g/m*3 1.3 C 0 km/h
114 14-01-2021 09:25:00 1.3 C 4.72 g/m*3 1.3 C 0 km/h
115 14-01-2021 09:30:00 1.4 C 4.75 g/m*3 1.4 C 0 km/h
116 14-01-2021 09:35:00 1.4 C 4.75 g/m*3 1.4 C 1.6 km/h
117 14-01-2021 09:40:00 1.4 C 4.75 g/m*3 1.4 C 0 km/h
118 14-01-2021 09:45:00 1.4 C 4.75 g/m*3 1.4 C 0 km/h
119 14-01-2021 09:50:00 1.5 C 4.78 g/m*3 1.5 C 0 km/h
120 14-01-2021 09:55:00 1.6 C 4.81 g/m*3 1.6 C 0 km/h
121 14-01-2021 10:00:00 1.6 C 4.81 g/m*3 1.6 C 0 km/h
122 14-01-2021 10:05:00 1.6 C 4.81 g/m*3 1.6 C 0 km/h
123 14-01-2021 10:10:00 1.7 C 4.85 g/m*3 1.7 C 0 km/h
124 14-01-2021 10:15:00 1.8 C 4.88 g/m*3 1.8 C 0 km/h
125 14-01-2021 10:20:00 1.8 C 4.82 g/m*3 1.8 C 0 km/h
Sensor: Nr:Datum:Temp:Abs-Feuchte:Windchill:Wind:
Aussen-T/F 126 14-01-2021 10:25:00 1.8 C 4.82 g/m*3 1.8 C 0 km/h
127 14-01-2021 10:30:00 1.9 C 4.8 g/m*3 1.9 C 0 km/h
128 14-01-2021 10:35:00 2 C 4.78 g/m*3 2 C 0 km/h
129 14-01-2021 10:40:00 2.1 C 4.76 g/m*3 2.1 C 1.6 km/h
130 14-01-2021 10:45:00 2.1 C 4.76 g/m*3 2.1 C 1.6 km/h
131 14-01-2021 10:50:00 2.2 C 4.73 g/m*3 2.2 C 1.6 km/h
132 14-01-2021 10:55:00 2.3 C 4.76 g/m*3 2.3 C 1.6 km/h
133 14-01-2021 11:00:00 2.3 C 4.76 g/m*3 2.3 C 1.6 km/h
134 14-01-2021 11:05:00 2.3 C 4.71 g/m*3 0.47 C 6.4 km/h
135 14-01-2021 11:10:00 2.3 C 4.71 g/m*3 0.47 C 6.4 km/h
136 14-01-2021 11:15:00 2.4 C 4.74 g/m*3 2.4 C 4.8 km/h
137 14-01-2021 11:20:00 2.4 C 4.74 g/m*3 2.4 C 3.2 km/h
138 14-01-2021 11:25:00 2.4 C 4.68 g/m*3 2.4 C 4.8 km/h
139 14-01-2021 11:30:00 2.4 C 4.68 g/m*3 0.59 C 6.4 km/h
140 14-01-2021 11:35:00 2.5 C 4.71 g/m*3 2.5 C 4.8 km/h
141 14-01-2021 11:40:00 2.4 C 4.68 g/m*3 2.4 C 4.8 km/h
142 14-01-2021 11:45:00 2.5 C 4.71 g/m*3 0.71 C 6.4 km/h
143 14-01-2021 11:50:00 2.6 C 4.75 g/m*3 0.82 C 6.4 km/h
144 14-01-2021 11:55:00 2.6 C 4.75 g/m*3 0.29 C 8.1 km/h
145 14-01-2021 12:00:00 2.5 C 4.6 g/m*3 0.71 C 6.4 km/h
146 14-01-2021 12:05:00 2.5 C 4.66 g/m*3 0.71 C 6.4 km/h
147 14-01-2021 12:10:00 2.6 C 4.69 g/m*3 2.6 C 4.8 km/h
148 14-01-2021 12:15:00 2.6 C 4.63 g/m*3 0.82 C 6.4 km/h
149 14-01-2021 12:20:00 2.6 C 4.63 g/m*3 0.29 C 8.1 km/h
150 14-01-2021 12:25:00 2.6 C 4.63 g/m*3 0.82 C 6.4 km/h
Sensor: Nr:Datum:Temp:Abs-Feuchte:Windchill:Wind:
Aussen-T/F 151 14-01-2021 12:30:00 2.6 C 4.63 g/m*3 0.82 C 6.4 km/h
152 14-01-2021 12:35:00 2.6 C 4.63 g/m*3 0.29 C 8.1 km/h
153 14-01-2021 12:40:00 2.7 C 4.66 g/m*3 2.7 C 4.8 km/h
154 14-01-2021 12:45:00 2.7 C 4.66 g/m*3 2.7 C 4.8 km/h
155 14-01-2021 12:50:00 2.7 C 4.72 g/m*3 2.7 C 4.8 km/h
156 14-01-2021 12:55:00 2.8 C 4.69 g/m*3 1.05 C 6.4 km/h
157 14-01-2021 13:00:00 2.8 C 4.69 g/m*3 2.8 C 3.2 km/h
158 14-01-2021 13:05:00 2.8 C 4.69 g/m*3 1.05 C 6.4 km/h
159 14-01-2021 13:10:00 2.8 C 4.69 g/m*3 1.05 C 6.4 km/h
160 14-01-2021 13:15:00 2.9 C 4.72 g/m*3 2.9 C 3.2 km/h
161 14-01-2021 13:20:00 2.9 C 4.67 g/m*3 0.64 C 8.1 km/h
162 14-01-2021 13:25:00 2.9 C 4.67 g/m*3 0.64 C 8.1 km/h
163 14-01-2021 13:30:00 2.9 C 4.67 g/m*3 1.17 C 6.4 km/h
164 14-01-2021 13:35:00 3 C 4.7 g/m*3 0.76 C 8.1 km/h
165 14-01-2021 13:40:00 3.1 C 4.73 g/m*3 3.1 C 4.8 km/h
166 14-01-2021 13:45:00 3.1 C 4.67 g/m*3 0.87 C 8.1 km/h
167 14-01-2021 13:50:00 3.1 C 4.67 g/m*3 1.4 C 6.4 km/h
168 14-01-2021 13:55:00 3.1 C 4.67 g/m*3 1.4 C 6.4 km/h
169 14-01-2021 14:00:00 3.1 C 4.67 g/m*3 1.4 C 6.4 km/h
170 14-01-2021 14:05:00 3.1 C 4.67 g/m*3 3.1 C 4.8 km/h
171 14-01-2021 14:10:00 3.1 C 4.67 g/m*3 3.1 C 3.2 km/h
172 14-01-2021 14:15:00 3.1 C 4.73 g/m*3 3.1 C 4.8 km/h
173 14-01-2021 14:20:00 3.1 C 4.67 g/m*3 3.1 C 3.2 km/h
174 14-01-2021 14:25:00 3.1 C 4.67 g/m*3 3.1 C 1.6 km/h
175 14-01-2021 14:30:00 3.1 C 4.67 g/m*3 3.1 C 3.2 km/h
Sensor: Nr:Datum:Temp:Abs-Feuchte:Windchill:Wind:
Aussen-T/F 176 14-01-2021 14:35:00 3.1 C 4.67 g/m*3 3.1 C 0 km/h
177 14-01-2021 14:40:00 3.2 C 4.7 g/m*3 3.2 C 1.6 km/h
178 14-01-2021 14:45:00 3.1 C 4.61 g/m*3 3.1 C 4.8 km/h
179 14-01-2021 14:50:00 3.1 C 4.61 g/m*3 3.1 C 4.8 km/h
180 14-01-2021 14:55:00 3.2 C 4.7 g/m*3 3.2 C 1.6 km/h
181 14-01-2021 15:00:00 3.2 C 4.7 g/m*3 3.2 C 0 km/h
182 14-01-2021 15:05:00 3.2 C 4.7 g/m*3 1.51 C 6.4 km/h
183 14-01-2021 15:10:00 3.1 C 4.67 g/m*3 3.1 C 3.2 km/h
184 14-01-2021 15:15:00 3.1 C 4.67 g/m*3 3.1 C 1.6 km/h
185 14-01-2021 15:20:00 3.1 C 4.67 g/m*3 3.1 C 1.6 km/h
186 14-01-2021 15:25:00 3.1 C 4.73 g/m*3 3.1 C 1.6 km/h
187 14-01-2021 15:30:00 3.1 C 4.67 g/m*3 3.1 C 1.6 km/h
188 14-01-2021 15:35:00 3.1 C 4.73 g/m*3 3.1 C 3.2 km/h
189 14-01-2021 15:40:00 3.1 C 4.73 g/m*3 3.1 C 4.8 km/h
190 14-01-2021 15:45:00 3 C 4.7 g/m*3 3 C 1.6 km/h
191 14-01-2021 15:50:00 3 C 4.7 g/m*3 3 C 0 km/h
192 14-01-2021 15:55:00 3 C 4.76 g/m*3 3 C 0 km/h
193 14-01-2021 16:00:00 3 C 4.76 g/m*3 3 C 0 km/h
194 14-01-2021 16:05:00 3 C 4.82 g/m*3 3 C 0 km/h
195 14-01-2021 16:10:00 2.9 C 4.84 g/m*3 2.9 C 0 km/h
196 14-01-2021 16:15:00 2.9 C 4.78 g/m*3 2.9 C 1.6 km/h
197 14-01-2021 16:20:00 2.8 C 4.81 g/m*3 2.8 C 0 km/h
198 14-01-2021 16:25:00 2.7 C 4.78 g/m*3 2.7 C 0 km/h
199 14-01-2021 16:30:00 2.7 C 4.78 g/m*3 2.7 C 0 km/h
200 14-01-2021 16:35:00 2.6 C 4.8 g/m*3 2.6 C 0 km/h
Sensor: Nr:Datum:Temp:Abs-Feuchte:Windchill:Wind:
Aussen-T/F 201 14-01-2021 16:40:00 2.4 C 4.74 g/m*3 2.4 C 0 km/h
202 14-01-2021 16:45:00 2.3 C 4.71 g/m*3 2.3 C 0 km/h
203 14-01-2021 16:50:00 2.2 C 4.68 g/m*3 2.2 C 0 km/h
204 14-01-2021 16:55:00 2.1 C 4.7 g/m*3 2.1 C 0 km/h
205 14-01-2021 17:00:00 1.9 C 4.64 g/m*3 1.9 C 0 km/h
206 14-01-2021 17:05:00 1.8 C 4.66 g/m*3 1.8 C 0 km/h
207 14-01-2021 17:10:00 1.7 C 4.63 g/m*3 1.7 C 0 km/h
208 14-01-2021 17:15:00 1.6 C 4.65 g/m*3 1.6 C 0 km/h
209 14-01-2021 17:20:00 1.4 C 4.59 g/m*3 1.4 C 0 km/h
210 14-01-2021 17:25:00 1.3 C 4.56 g/m*3 1.3 C 1.6 km/h
211 14-01-2021 17:30:00 1.2 C 4.58 g/m*3 1.2 C 0 km/h
212 14-01-2021 17:35:00 1.2 C 4.58 g/m*3 1.2 C 1.6 km/h
213 14-01-2021 17:40:00 1.1 C 4.6 g/m*3 1.1 C 1.6 km/h
214 14-01-2021 17:45:00 1.1 C 4.6 g/m*3 1.1 C 0 km/h
215 14-01-2021 17:50:00 1.1 C 4.6 g/m*3 1.1 C 4.8 km/h
216 14-01-2021 17:55:00 1 C 4.57 g/m*3 1 C 3.2 km/h
217 14-01-2021 18:00:00 1 C 4.57 g/m*3 1 C 0 km/h
218 14-01-2021 18:05:00 0.9 C 4.54 g/m*3 0.9 C 0 km/h
219 14-01-2021 18:10:00 0.9 C 4.54 g/m*3 -1.14 C 6.4 km/h
220 14-01-2021 18:15:00 1 C 4.57 g/m*3 1 C 3.2 km/h
221 14-01-2021 18:20:00 1 C 4.57 g/m*3 1 C 4.8 km/h
222 14-01-2021 18:25:00 1 C 4.57 g/m*3 1 C 1.6 km/h
223 14-01-2021 18:30:00 1 C 4.57 g/m*3 1 C 0 km/h
224 14-01-2021 18:35:00 0.9 C 4.54 g/m*3 0.9 C 0 km/h
225 14-01-2021 18:40:00 0.9 C 4.54 g/m*3 0.9 C 0 km/h
Sensor: Nr:Datum:Temp:Abs-Feuchte:Windchill:Wind:
Aussen-T/F 226 14-01-2021 18:45:00 0.8 C 4.51 g/m*3 0.8 C 0 km/h
227 14-01-2021 18:50:00 0.7 C 4.47 g/m*3 0.7 C 1.6 km/h
228 14-01-2021 18:55:00 0.6 C 4.44 g/m*3 0.6 C 3.2 km/h
229 14-01-2021 19:00:00 0.5 C 4.41 g/m*3 0.5 C 4.8 km/h
230 14-01-2021 19:05:00 0.4 C 4.38 g/m*3 0.4 C 0 km/h
231 14-01-2021 19:10:00 0.4 C 4.43 g/m*3 0.4 C 0 km/h
232 14-01-2021 19:15:00 0.3 C 4.4 g/m*3 0.3 C 0 km/h
233 14-01-2021 19:20:00 0.3 C 4.4 g/m*3 0.3 C 0 km/h
234 14-01-2021 19:25:00 0.2 C 4.42 g/m*3 0.2 C 0 km/h
235 14-01-2021 19:30:00 0.2 C 4.42 g/m*3 0.2 C 0 km/h
236 14-01-2021 19:35:00 0.2 C 4.42 g/m*3 0.2 C 1.6 km/h
237 14-01-2021 19:40:00 0.2 C 4.42 g/m*3 0.2 C 0 km/h
238 14-01-2021 19:45:00 0.2 C 4.42 g/m*3 0.2 C 1.6 km/h
239 14-01-2021 19:50:00 0.2 C 4.42 g/m*3 0.2 C 3.2 km/h
240 14-01-2021 19:55:00 0.2 C 4.42 g/m*3 0.2 C 1.6 km/h
241 14-01-2021 20:00:00 0.2 C 4.47 g/m*3 0.2 C 1.6 km/h
242 14-01-2021 20:05:00 0.2 C 4.47 g/m*3 0.2 C 0 km/h
243 14-01-2021 20:10:00 0.2 C 4.47 g/m*3 0.2 C 1.6 km/h
244 14-01-2021 20:15:00 0.2 C 4.47 g/m*3 0.2 C 1.6 km/h
245 14-01-2021 20:20:00 0.2 C 4.47 g/m*3 0.2 C 0 km/h
246 14-01-2021 20:25:00 0.2 C 4.47 g/m*3 0.2 C 0 km/h
247 14-01-2021 20:30:00 0.1 C 4.44 g/m*3 0.1 C 0 km/h
248 14-01-2021 20:35:00 0.1 C 4.44 g/m*3 0.1 C 1.6 km/h
249 14-01-2021 20:40:00 0.1 C 4.44 g/m*3 0.1 C 3.2 km/h
250 14-01-2021 20:45:00 0.1 C 4.44 g/m*3 0.1 C 0 km/h
Sensor: Nr:Datum:Temp:Abs-Feuchte:Windchill:Wind:
Aussen-T/F 251 14-01-2021 20:50:00 0.1 C 4.44 g/m*3 -3.52 C 11.3 km/h
252 14-01-2021 20:55:00 0.2 C 4.47 g/m*3 0.2 C 1.6 km/h
253 14-01-2021 21:00:00 0.2 C 4.42 g/m*3 0.2 C 1.6 km/h
254 14-01-2021 21:05:00 0.2 C 4.42 g/m*3 0.2 C 4.8 km/h
255 14-01-2021 21:10:00 0.2 C 4.42 g/m*3 0.2 C 1.6 km/h
256 14-01-2021 21:15:00 0.2 C 4.42 g/m*3 0.2 C 0 km/h
257 14-01-2021 21:20:00 0.2 C 4.42 g/m*3 0.2 C 1.6 km/h
258 14-01-2021 21:25:00 0.2 C 4.42 g/m*3 0.2 C 0 km/h
259 14-01-2021 21:30:00 0.1 C 4.39 g/m*3 0.1 C 1.6 km/h
260 14-01-2021 21:35:00 0.1 C 4.39 g/m*3 0.1 C 0 km/h
261 14-01-2021 21:40:00 0 C 4.36 g/m*3 0 C 0 km/h
262 14-01-2021 21:45:00 -0.1 C 4.33 g/m*3 -0.1 C 0 km/h
263 14-01-2021 21:50:00 -0.1 C 4.33 g/m*3 -0.1 C 1.6 km/h
264 14-01-2021 21:55:00 -0.2 C 4.3 g/m*3 -0.2 C 0 km/h
265 14-01-2021 22:00:00 -0.2 C 4.3 g/m*3 -0.2 C 0 km/h
266 14-01-2021 22:05:00 -0.3 C 4.27 g/m*3 -0.3 C 0 km/h
267 14-01-2021 22:10:00 -0.3 C 4.27 g/m*3 -0.3 C 3.2 km/h
268 14-01-2021 22:15:00 -0.3 C 4.27 g/m*3 -0.3 C 1.6 km/h
269 14-01-2021 22:20:00 -0.3 C 4.27 g/m*3 -0.3 C 1.6 km/h
270 14-01-2021 22:25:00 -0.3 C 4.27 g/m*3 -0.3 C 0 km/h
271 14-01-2021 22:30:00 -0.3 C 4.27 g/m*3 -0.3 C 1.6 km/h
272 14-01-2021 22:35:00 -0.4 C 4.24 g/m*3 -0.4 C 0 km/h
273 14-01-2021 22:40:00 -0.4 C 4.24 g/m*3 -0.4 C 1.6 km/h
274 14-01-2021 22:45:00 -0.5 C 4.21 g/m*3 -0.5 C 0 km/h
275 14-01-2021 22:50:00 -0.6 C 4.18 g/m*3 -0.6 C 1.6 km/h
Sensor: Nr:Datum:Temp:Abs-Feuchte:Windchill:Wind:
Aussen-T/F 276 14-01-2021 22:55:00 -0.6 C 4.18 g/m*3 -0.6 C 1.6 km/h
277 14-01-2021 23:00:00 -0.6 C 4.18 g/m*3 -0.6 C 3.2 km/h
278 14-01-2021 23:05:00 -0.7 C 4.15 g/m*3 -0.7 C 1.6 km/h
279 14-01-2021 23:10:00 -0.7 C 4.15 g/m*3 -0.7 C 1.6 km/h
280 14-01-2021 23:15:00 -0.7 C 4.15 g/m*3 -0.7 C 1.6 km/h
281 14-01-2021 23:20:00 -0.7 C 4.15 g/m*3 -0.7 C 4.8 km/h
282 14-01-2021 23:25:00 -0.7 C 4.15 g/m*3 -0.7 C 3.2 km/h
283 14-01-2021 23:30:00 -0.7 C 4.15 g/m*3 -0.7 C 1.6 km/h
284 14-01-2021 23:35:00 -0.7 C 4.15 g/m*3 -0.7 C 0 km/h
285 14-01-2021 23:40:00 -0.7 C 4.15 g/m*3 -0.7 C 1.6 km/h
286 14-01-2021 23:45:00 -0.7 C 4.15 g/m*3 -0.7 C 0 km/h
287 14-01-2021 23:50:00 -0.8 C 4.13 g/m*3 -0.8 C 1.6 km/h
288 14-01-2021 23:55:00 -0.8 C 4.13 g/m*3 -0.8 C 3.2 km/h

Legende:
   Min
   Max


Maximal/Minimal-Werte vom 23.03.2019 - 25.04.2019

Sensor Min Max Avg
Temp
(Aussen-T/F)
0.3 °C
14-04-2019  00:50:00
26.6 °C
24-04-2019  17:05:00
9.96 °C

Die Daten stammen von einer Davis Vantage Pro 2 Wetter-Station und werden unter Linux mit der Software wview2wettercgi und aufbereitet. Alle Angaben erfolgen ohne Gewähr für ihre Vollständigkeit oder Richtigkeit.
Kontakt: Rainer Krienke krienke@uni-koblenz.de . Meine Webseiten an der Uni Koblenz oder privat.
Version: $Revision: 0.78 $